^^

..:: Storico WU ::..




Lo storico viene creato da WUnderground con i dati che la stazione Meteomincio invia al loro server. L' aggiornamento viene fatto ogni 5 minuti circa, tuttavia possono esserci intervalli pił ampi a causa di errori, interruzioni di servizio o problemi nell' invio tramite FTP.


Storico stazione MeteoMincio
Giorno Sommario per Giugno 20, 2022 Unità:  Inglese    Metrico   Entrambi
Giorno Settimana Mese Anno
  Max: Min: Media:
Temperatura: 93.2 °F 68 °F 81 °F
Dew Point: 69.8 °F 60.8 °F 65.7 °F
Umidità: 88% 42% 62%
Velocità vento: 9.3mph 0mph 3.8mph
Raffica: 13mph - -
Direzione- - SSW
Pressione: 29.9 in 29.8 in -
Precipitazioni: 0 in    
 
 
Tabulato Dati per Giugno 20, 2022
Ora Temperatura Dew Point Pressione Direzione Velocità vento Raffica Umidità Intensità pioggia (oraria) Info solare Situazione
00:04 75.2 °F 62.6 °F 29.9 in ENE 5 mph 6.8 mph 67% 0 in 0.00 W/m2 unknown
00:09 73.4 °F 62.6 °F 29.9 in ENE 5 mph 6.8 mph 68% 0 in 0.00 W/m2 unknown
00:14 73.4 °F 62.6 °F 29.9 in ENE 4.3 mph 6.8 mph 68% 0 in 0.00 W/m2 unknown
00:19 73.4 °F 62.6 °F 29.9 in ENE 4.3 mph 6.8 mph 68% 0 in 0.00 W/m2 unknown
00:24 73.4 °F 62.6 °F 29.9 in ENE 3.1 mph 5 mph 68% 0 in 0.00 W/m2 unknown
00:29 73.4 °F 62.6 °F 29.9 in ENE 3.1 mph 5 mph 69% 0 in 0.00 W/m2 unknown
00:34 73.4 °F 62.6 °F 29.9 in ENE 3.1 mph 5 mph 69% 0 in 0.00 W/m2 unknown
00:39 73.4 °F 62.6 °F 29.9 in ENE 3.1 mph 3.7 mph 69% 0 in 0.00 W/m2 unknown
00:44 73.4 °F 62.6 °F 29.9 in ENE 3.1 mph 3.7 mph 69% 0 in 0.00 W/m2 unknown
00:49 73.4 °F 60.8 °F 29.9 in ENE 3.1 mph 5 mph 68% 0 in 0.00 W/m2 unknown
00:54 73.4 °F 62.6 °F 29.9 in ENE 3.7 mph 5 mph 69% 0 in 0.00 W/m2 unknown
00:59 73.4 °F 62.6 °F 29.9 in ENE 3.7 mph 5 mph 69% 0 in 0.00 W/m2 unknown
01:04 73.4 °F 62.6 °F 29.9 in ENE 3.7 mph 5 mph 69% 0 in 0.00 W/m2 unknown
01:09 73.4 °F 62.6 °F 29.9 in East 3.7 mph 5 mph 70% 0 in 0.00 W/m2 unknown
01:14 71.6 °F 62.6 °F 29.9 in East 3.7 mph 5 mph 70% 0 in 0.00 W/m2 unknown
01:19 71.6 °F 62.6 °F 29.9 in ENE 3.7 mph 5 mph 71% 0 in 0.00 W/m2 unknown
01:24 71.6 °F 62.6 °F 29.9 in ENE 3.7 mph 5 mph 71% 0 in 0.00 W/m2 unknown
01:29 71.6 °F 62.6 °F 29.9 in ENE 3.1 mph 5 mph 72% 0 in 0.00 W/m2 unknown
01:34 71.6 °F 62.6 °F 29.9 in ENE 3.1 mph 5 mph 72% 0 in 0.00 W/m2 unknown
01:39 71.6 °F 62.6 °F 29.9 in NE 2.5 mph 4.3 mph 72% 0 in 0.00 W/m2 unknown
01:44 71.6 °F 62.6 °F 29.9 in NE 3.1 mph 5 mph 72% 0 in 0.00 W/m2 unknown
01:49 71.6 °F 62.6 °F 29.9 in NE 3.7 mph 5 mph 72% 0 in 0.00 W/m2 unknown
01:54 71.6 °F 62.6 °F 29.9 in NE 3.7 mph 5 mph 72% 0 in 0.00 W/m2 unknown
01:59 71.6 °F 62.6 °F 29.9 in NNE 3.7 mph 5 mph 72% 0 in 0.00 W/m2 unknown
02:04 71.6 °F 62.6 °F 29.9 in NE 3.7 mph 6.2 mph 72% 0 in 0.00 W/m2 unknown
02:09 71.6 °F 62.6 °F 29.9 in NNE 3.7 mph 6.2 mph 73% 0 in 0.00 W/m2 unknown
02:13 71.6 °F 62.6 °F 29.9 in NNE 3.7 mph 6.2 mph 73% 0 in 0.00 W/m2 unknown
02:19 71.6 °F 62.6 °F 29.9 in NNE 3.7 mph 6.2 mph 73% 0 in 0.00 W/m2 unknown
02:24 71.6 °F 62.6 °F 29.9 in NNE 3.7 mph 5.6 mph 74% 0 in 0.00 W/m2 unknown
02:29 71.6 °F 62.6 °F 29.9 in NE 3.7 mph 6.2 mph 75% 0 in 0.00 W/m2 unknown
02:34 71.6 °F 62.6 °F 29.9 in NE 3.1 mph 5 mph 76% 0 in 0.00 W/m2 unknown
02:39 71.6 °F 62.6 °F 29.9 in NE 3.1 mph 3.7 mph 77% 0 in 0.00 W/m2 unknown
02:44 71.6 °F 62.6 °F 29.9 in ENE 3.1 mph 3.7 mph 77% 0 in 0.00 W/m2 unknown
02:49 69.8 °F 62.6 °F 29.9 in East 3.1 mph 3.7 mph 78% 0 in 0.00 W/m2 unknown
02:54 69.8 °F 62.6 °F 29.9 in ENE 2.5 mph 3.7 mph 79% 0 in 0.00 W/m2 unknown
02:59 69.8 °F 62.6 °F 29.9 in ENE 1.2 mph 2.5 mph 79% 0 in 0.00 W/m2 unknown
03:04 69.8 °F 62.6 °F 29.9 in ENE 1.2 mph 2.5 mph 80% 0 in 0.00 W/m2 unknown
03:09 69.8 °F 62.6 °F 29.9 in ENE 1.2 mph 2.5 mph 80% 0 in 0.00 W/m2 unknown
03:14 69.8 °F 62.6 °F 29.9 in ENE 1.2 mph 1.9 mph 80% 0 in 0.00 W/m2 unknown
03:19 69.8 °F 62.6 °F 29.9 in Calm     81% 0 in 0.00 W/m2 unknown
03:21 69.8 °F 62.6 °F 29.9 in Calm     81% 0 in 0.00 W/m2 unknown
03:29 69.8 °F 62.6 °F 29.9 in ENE 1.2 mph 3.1 mph 81% 0 in 0.00 W/m2 unknown
03:32 69.8 °F 62.6 °F 29.9 in ENE 1.2 mph 3.7 mph 81% 0 in 0.00 W/m2 unknown
03:39 69.8 °F 62.6 °F 29.9 in NE 1.9 mph 3.7 mph 82% 0 in 0.00 W/m2 unknown
03:44 69.8 °F 62.6 °F 29.9 in NE 1.9 mph 3.7 mph 82% 0 in 0.00 W/m2 unknown
03:46 69.8 °F 62.6 °F 29.9 in NE 1.9 mph 3.7 mph 82% 0 in 0.00 W/m2 unknown
03:54 69.8 °F 62.6 °F 29.9 in NE 2.5 mph 3.7 mph 83% 0 in 0.00 W/m2 unknown
03:59 68 °F 62.6 °F 29.9 in NNE 1.9 mph 3.7 mph 83% 0 in 0.00 W/m2 unknown
04:03 69.8 °F 64.4 °F 29.9 in NE 1.9 mph 3.1 mph 83% 0 in 0.00 W/m2 unknown
04:09 69.8 °F 64.4 °F 29.9 in NE 2.5 mph 3.7 mph 83% 0 in 0.00 W/m2 unknown
04:13 69.8 °F 64.4 °F 29.9 in ENE 2.5 mph 3.7 mph 83% 0 in 0.00 W/m2 unknown
04:19 68 °F 62.6 °F 29.9 in ENE 2.5 mph 5 mph 84% 0 in 0.00 W/m2 unknown
04:23 68 °F 62.6 °F 29.9 in ENE 2.5 mph 5 mph 84% 0 in 0.00 W/m2 unknown
04:29 68 °F 62.6 °F 29.9 in ENE 4.3 mph 6.8 mph 86% 0 in 0.00 W/m2 unknown
04:33 68 °F 64.4 °F 29.9 in ENE 3.1 mph 6.8 mph 86% 0 in 0.00 W/m2 unknown
04:39 68 °F 64.4 °F 29.9 in ENE 1.9 mph 3.7 mph 86% 0 in 0.00 W/m2 unknown
04:44 68 °F 64.4 °F 29.9 in ENE 1.2 mph 3.1 mph 86% 0 in 0.00 W/m2 unknown
04:48 68 °F 64.4 °F 29.9 in ENE 1.2 mph 2.5 mph 86% 0 in 0.00 W/m2 unknown
04:54 68 °F 64.4 °F 29.9 in NE 1.2 mph 2.5 mph 86% 0 in 0.00 W/m2 unknown
04:58 68 °F 64.4 °F 29.9 in ENE 1.2 mph 1.9 mph 86% 0 in 0.00 W/m2 unknown
05:04 68 °F 64.4 °F 29.9 in ENE 1.9 mph 3.1 mph 86% 0 in 0.00 W/m2 unknown
05:07 68 °F 64.4 °F 29.9 in East 1.9 mph 3.7 mph 86% 0 in 0.00 W/m2 unknown
05:14 68 °F 64.4 °F 29.9 in East 1.9 mph 3.7 mph 86% 0 in 0.00 W/m2 unknown
05:16 68 °F 64.4 °F 29.9 in East 1.9 mph 3.7 mph 86% 0 in 0.00 W/m2 unknown
05:24 68 °F 64.4 °F 29.9 in East 1.9 mph 3.7 mph 87% 0 in 0.00 W/m2 unknown
05:29 68 °F 64.4 °F 29.9 in East 1.9 mph 2.5 mph 87% 0 in 0.00 W/m2 unknown
05:34 68 °F 64.4 °F 29.9 in SE 0.6 mph 2.5 mph 87% 0 in 5.00 W/m2 unknown
05:39 68 °F 64.4 °F 29.9 in SSE 0.6 mph 2.5 mph 87% 0 in 5.00 W/m2 unknown
05:44 68 °F 64.4 °F 29.9 in SSE 1.2 mph 1.9 mph 87% 0 in 9.00 W/m2 unknown
05:49 68 °F 64.4 °F 29.9 in Calm   1.2 mph 87% 0 in 12.00 W/m2 unknown
05:54 68 °F 64.4 °F 29.9 in Calm   1.2 mph 87% 0 in 14.00 W/m2 unknown
05:59 68 °F 64.4 °F 29.9 in ESE 0.6 mph 1.2 mph 87% 0 in 18.00 W/m2 unknown
06:04 68 °F 64.4 °F 29.9 in SE 0.6 mph 1.2 mph 87% 0 in 21.00 W/m2 unknown
06:09 68 °F 64.4 °F 29.9 in Calm   1.2 mph 87% 0 in 21.00 W/m2 unknown
06:13 68 °F 64.4 °F 29.9 in Calm   1.2 mph 87% 0 in 21.00 W/m2 unknown
06:19 68 °F 64.4 °F 29.9 in Calm     87% 0 in 21.00 W/m2 unknown
06:21 68 °F 64.4 °F 29.9 in Calm     87% 0 in 21.00 W/m2 unknown
06:26 68 °F 64.4 °F 29.9 in Calm     87% 0 in 21.00 W/m2 unknown
06:34 68 °F 64.4 °F 29.9 in SW 0.6 mph 2.5 mph 88% 0 in 54.00 W/m2 unknown
06:39 68 °F 64.4 °F 29.9 in SW 1.2 mph 2.5 mph 88% 0 in 62.00 W/m2 unknown
06:44 68 °F 64.4 °F 29.9 in SW 1.2 mph 2.5 mph 88% 0 in 67.00 W/m2 unknown
06:49 68 °F 64.4 °F 29.9 in WSW 1.2 mph 2.5 mph 88% 0 in 76.00 W/m2 unknown
06:54 68 °F 64.4 °F 29.9 in WSW 1.2 mph 2.5 mph 88% 0 in 84.00 W/m2 unknown
06:59 69.8 °F 64.4 °F 29.9 in West 1.2 mph 2.5 mph 88% 0 in 93.00 W/m2 unknown
07:02 69.8 °F 64.4 °F 29.9 in West 1.2 mph 2.5 mph 88% 0 in 93.00 W/m2 unknown
07:09 69.8 °F 66.2 °F 29.9 in WSW 1.2 mph 2.5 mph 88% 0 in 116.00 W/m2 unknown
07:14 69.8 °F 66.2 °F 29.9 in WSW 1.9 mph 3.1 mph 87% 0 in 130.00 W/m2 unknown
07:19 69.8 °F 66.2 °F 29.9 in WSW 1.9 mph 3.7 mph 87% 0 in 130.00 W/m2 unknown
07:22 69.8 °F 66.2 °F 29.9 in SSW 2.5 mph 3.7 mph 86% 0 in 149.00 W/m2 unknown
07:29 71.6 °F 66.2 °F 29.9 in SSW 1.9 mph 3.7 mph 85% 0 in 163.00 W/m2 unknown
07:34 71.6 °F 66.2 °F 29.9 in SW 1.9 mph 3.7 mph 85% 0 in 172.00 W/m2 unknown
07:39 71.6 °F 66.2 °F 29.9 in South 1.9 mph 3.7 mph 85% 0 in 188.00 W/m2 unknown
07:44 71.6 °F 66.2 °F 29.9 in SE 1.9 mph 3.7 mph 84% 0 in 199.00 W/m2 unknown
07:49 71.6 °F 66.2 °F 29.9 in South 1.9 mph 3.7 mph 83% 0 in 211.00 W/m2 unknown
07:54 71.6 °F 66.2 °F 29.9 in SSE 1.9 mph 3.7 mph 83% 0 in 220.00 W/m2 unknown
07:59 73.4 °F 66.2 °F 29.9 in ESE 2.5 mph 3.7 mph 83% 0 in 237.00 W/m2 unknown
08:04 73.4 °F 68 °F 29.9 in East 2.5 mph 5 mph 82% 0 in 248.00 W/m2 unknown
08:09 73.4 °F 68 °F 29.9 in ESE 3.7 mph 5 mph 81% 0 in 260.00 W/m2 unknown
08:14 73.4 °F 68 °F 29.9 in ESE 3.7 mph 5 mph 81% 0 in 276.00 W/m2 unknown
08:19 73.4 °F 68 °F 29.9 in East 3.1 mph 5 mph 81% 0 in 290.00 W/m2 unknown
08:24 75.2 °F 68 °F 29.9 in East 3.1 mph 5 mph 81% 0 in 306.00 W/m2 unknown
08:29 75.2 °F 68 °F 29.9 in ESE 3.1 mph 3.7 mph 80% 0 in 320.00 W/m2 unknown
08:34 75.2 °F 68 °F 29.9 in ENE 3.1 mph 5 mph 79% 0 in 327.00 W/m2 unknown
08:39 75.2 °F 68 °F 29.9 in ENE 3.1 mph 6.8 mph 78% 0 in 343.00 W/m2 unknown
08:44 77 °F 68 °F 29.9 in East 3.7 mph 6.8 mph 77% 0 in 355.00 W/m2 unknown
08:49 77 °F 68 °F 29.9 in ESE 3.1 mph 5 mph 76% 0 in 369.00 W/m2 unknown
08:54 77 °F 68 °F 29.9 in ENE 3.1 mph 5 mph 75% 0 in 381.00 W/m2 unknown
08:59 77 °F 68 °F 29.9 in ENE 3.1 mph 5 mph 75% 0 in 403.00 W/m2 unknown
09:03 77 °F 68 °F 29.9 in East 3.7 mph 5 mph 74% 0 in 411.00 W/m2 unknown
09:09 77 °F 68 °F 29.9 in East 3.1 mph 5 mph 73% 0 in 429.00 W/m2 unknown
09:14 77 °F 68 °F 29.9 in ESE 3.1 mph 5 mph 73% 0 in 441.00 W/m2 unknown
09:19 77 °F 68 °F 29.9 in East 1.9 mph 5 mph 74% 0 in 455.00 W/m2 unknown
09:24 77 °F 68 °F 29.9 in SE 2.5 mph 5 mph 74% 0 in 475.00 W/m2 unknown
09:29 78.8 °F 69.8 °F 29.9 in SE 2.5 mph 5 mph 74% 0 in 489.00 W/m2 unknown
09:34 78.8 °F 69.8 °F 29.9 in NE 2.5 mph 3.7 mph 74% 0 in 501.00 W/m2 unknown
09:39 78.8 °F 69.8 °F 29.9 in ENE 1.9 mph 5 mph 73% 0 in 513.00 W/m2 unknown
09:44 78.8 °F 69.8 °F 29.9 in ESE 3.1 mph 5 mph 72% 0 in 529.00 W/m2 unknown
09:48 78.8 °F 68 °F 29.9 in ESE 3.1 mph 5 mph 71% 0 in 536.00 W/m2 unknown
09:54 78.8 °F 68 °F 29.9 in ESE 1.9 mph 3.7 mph 70% 0 in 552.00 W/m2 unknown
09:59 78.8 °F 68 °F 29.9 in ESE 1.9 mph 5 mph 69% 0 in 564.00 W/m2 unknown
10:04 78.8 °F 69.8 °F 29.9 in East 3.1 mph 5 mph 70% 0 in 573.00 W/m2 unknown
10:09 78.8 °F 68 °F 29.9 in ESE 3.1 mph 5 mph 69% 0 in 587.00 W/m2 unknown
10:14 80.6 °F 69.8 °F 29.9 in SE 3.1 mph 5 mph 69% 0 in 596.00 W/m2 unknown
10:19 80.6 °F 69.8 °F 29.9 in East 3.1 mph 5 mph 68% 0 in 610.00 W/m2 unknown
10:24 80.6 °F 69.8 °F 29.9 in ESE 3.1 mph 5 mph 68% 0 in 621.00 W/m2 unknown
10:29 80.6 °F 68 °F 29.9 in East 2.5 mph 5 mph 67% 0 in 628.00 W/m2 unknown
10:34 80.6 °F 69.8 °F 29.9 in ESE 2.5 mph 3.7 mph 67% 0 in 640.00 W/m2 unknown
10:39 80.6 °F 68 °F 29.9 in WSW 2.5 mph 3.7 mph 66% 0 in 650.00 W/m2 unknown
10:43 82.4 °F 68 °F 29.9 in SSW 1.9 mph 3.7 mph 65% 0 in 659.00 W/m2 unknown
10:49 82.4 °F 69.8 °F 29.9 in WSW 1.9 mph 3.7 mph 65% 0 in 668.00 W/m2 unknown
10:54 82.4 °F 69.8 °F 29.9 in WSW 2.5 mph 5 mph 65% 0 in 680.00 W/m2 unknown
10:59 82.4 °F 68 °F 29.9 in WSW 3.1 mph 5 mph 63% 0 in 689.00 W/m2 unknown
11:04 82.4 °F 68 °F 29.9 in West 3.1 mph 5 mph 63% 0 in 696.00 W/m2 unknown
11:09 82.4 °F 68 °F 29.9 in NW 3.1 mph 3.7 mph 63% 0 in 710.00 W/m2 unknown
11:14 84.2 °F 69.8 °F 29.9 in WNW 1.9 mph 3.7 mph 62% 0 in 722.00 W/m2 unknown
11:19 84.2 °F 69.8 °F 29.9 in West 3.7 mph 6.2 mph 63% 0 in 728.00 W/m2 unknown
11:24 84.2 °F 68 °F 29.9 in SW 3.7 mph 6.2 mph 60% 0 in 733.00 W/m2 unknown
11:29 84.2 °F 69.8 °F 29.9 in SE 3.7 mph 6.2 mph 61% 0 in 745.00 W/m2 unknown
11:34 84.2 °F 68 °F 29.9 in WSW 3.1 mph 6.2 mph 58% 0 in 751.00 W/m2 unknown
11:39 86 °F 69.8 °F 29.9 in WSW 3.1 mph 6.8 mph 59% 0 in 761.00 W/m2 unknown
11:44 86 °F 69.8 °F 29.9 in ESE 3.1 mph 6.8 mph 61% 0 in 766.00 W/m2 unknown
11:49 86 °F 69.8 °F 29.9 in NE 2.5 mph 6.8 mph 59% 0 in 766.00 W/m2 unknown
11:54 86 °F 68 °F 29.9 in WNW 3.1 mph 5 mph 57% 0 in 777.00 W/m2 unknown
11:59 86 °F 68 °F 29.9 in WSW 3.1 mph 5 mph 57% 0 in 791.00 W/m2 unknown
12:04 86 °F 68 °F 29.9 in NNW 3.1 mph 5 mph 55% 0 in 795.00 W/m2 unknown
12:09 86 °F 68 °F 29.9 in NW 1.9 mph 3.7 mph 55% 0 in 798.00 W/m2 unknown
12:14 86 °F 68 °F 29.9 in SE 1.9 mph 3.7 mph 57% 0 in 803.00 W/m2 unknown
12:19 86 °F 68 °F 29.9 in SSW 1.9 mph 5 mph 57% 0 in 812.00 W/m2 unknown
12:23 86 °F 66.2 °F 29.9 in ESE 1.9 mph 4.3 mph 54% 0 in 810.00 W/m2 unknown
12:29 87.8 °F 68 °F 29.9 in WNW 2.5 mph 5 mph 55% 0 in 824.00 W/m2 unknown
12:34 87.8 °F 68 °F 29.9 in West 3.7 mph 5 mph 55% 0 in 831.00 W/m2 unknown
12:39 87.8 °F 68 °F 29.9 in NW 3.1 mph 5 mph 53% 0 in 831.00 W/m2 unknown
12:44 87.8 °F 68 °F 29.9 in WNW 3.1 mph 5 mph 53% 0 in 838.00 W/m2 unknown
12:49 87.8 °F 68 °F 29.9 in WSW 1.9 mph 6.2 mph 52% 0 in 837.00 W/m2 unknown
12:54 87.8 °F 68 °F 29.9 in West 3.7 mph 6.8 mph 52% 0 in 842.00 W/m2 unknown
12:59 89.6 °F 68 °F 29.9 in West 4.3 mph 6.8 mph 50% 0 in 846.00 W/m2 unknown
13:04 89.6 °F 68 °F 29.9 in West 5 mph 6.8 mph 50% 0 in 844.00 W/m2 unknown
13:08 89.6 °F 68 °F 29.9 in WNW 5 mph 8.1 mph 49% 0 in 849.00 W/m2 unknown
13:13 89.6 °F 68 °F 29.9 in West 5 mph 8.1 mph 49% 0 in 851.00 W/m2 unknown
13:17 89.6 °F 66.2 °F 29.9 in West 5 mph 8.1 mph 48% 0 in 851.00 W/m2 unknown
13:24 89.6 °F 68 °F 29.9 in West 5 mph 6.8 mph 48% 0 in 858.00 W/m2 unknown
13:29 91.4 °F 69.8 °F 29.9 in NW 5 mph 6.2 mph 50% 0 in 860.00 W/m2 unknown
13:34 91.4 °F 68 °F 29.9 in NW 4.3 mph 6.8 mph 48% 0 in 858.00 W/m2 unknown
13:39 91.4 °F 68 °F 29.9 in WNW 4.3 mph 6.8 mph 48% 0 in 854.00 W/m2 unknown
13:44 91.4 °F 68 °F 29.8 in WNW 3.7 mph 6.8 mph 48% 0 in 861.00 W/m2 unknown
13:49 91.4 °F 68 °F 29.8 in WSW 4.3 mph 6.8 mph 49% 0 in 860.00 W/m2 unknown
13:54 91.4 °F 68 °F 29.8 in West 4.3 mph 6.2 mph 49% 0 in 861.00 W/m2 unknown
13:59 91.4 °F 68 °F 29.8 in NW 3.1 mph 8.1 mph 47% 0 in 861.00 W/m2 unknown
14:04 91.4 °F 69.8 °F 29.8 in WSW 5 mph 8.1 mph 49% 0 in 854.00 W/m2 unknown
14:09 91.4 °F 69.8 °F 29.8 in West 6.2 mph 8.1 mph 49% 0 in 860.00 W/m2 unknown
14:13 91.4 °F 69.8 °F 29.8 in West 6.2 mph 6.8 mph 49% 0 in 854.00 W/m2 unknown
14:19 91.4 °F 68 °F 29.8 in West 5 mph 6.8 mph 47% 0 in 854.00 W/m2 unknown
14:24 91.4 °F 68 °F 29.8 in WSW 5.6 mph 9.3 mph 47% 0 in 851.00 W/m2 unknown
14:29 91.4 °F 68 °F 29.8 in West 5.6 mph 9.3 mph 47% 0 in 846.00 W/m2 unknown
14:34 91.4 °F 68 °F 29.8 in WNW 5.6 mph 9.3 mph 46% 0 in 838.00 W/m2 unknown
14:39 93.2 °F 68 °F 29.8 in West 6.2 mph 9.3 mph 44% 0 in 840.00 W/m2 unknown
14:44 93.2 °F 68 °F 29.8 in WSW 5.6 mph 9.3 mph 44% 0 in 838.00 W/m2 unknown
14:49 93.2 °F 68 °F 29.8 in WSW 5.6 mph 9.3 mph 45% 0 in 830.00 W/m2 unknown
14:54 91.4 °F 68 °F 29.8 in WNW 6.2 mph 9.3 mph 45% 0 in 826.00 W/m2 unknown
14:59 93.2 °F 68 °F 29.8 in NNW 6.2 mph 8.1 mph 44% 0 in 831.00 W/m2 unknown
15:04 93.2 °F 68 °F 29.8 in NW 6.2 mph 11.8 mph 43% 0 in 817.00 W/m2 unknown
15:09 93.2 °F 66.2 °F 29.8 in NW 6.8 mph 11.8 mph 43% 0 in 817.00 W/m2 unknown
15:13 93.2 °F 66.2 °F 29.8 in West 6.2 mph 11.8 mph 43% 0 in 807.00 W/m2 unknown
15:19 93.2 °F 68 °F 29.8 in West 3.7 mph 9.3 mph 43% 0 in 793.00 W/m2 unknown
15:24 93.2 °F 66.2 °F 29.8 in WNW 5 mph 9.3 mph 42% 0 in 793.00 W/m2 unknown
15:29 93.2 °F 66.2 °F 29.8 in WNW 5.6 mph 9.3 mph 43% 0 in 744.00 W/m2 unknown
15:34 93.2 °F 68 °F 29.8 in NW 5 mph 8.7 mph 44% 0 in 786.00 W/m2 unknown
15:39 93.2 °F 68 °F 29.8 in WSW 5 mph 10.6 mph 44% 0 in 770.00 W/m2 unknown
15:44 93.2 °F 69.8 °F 29.8 in West 6.2 mph 10.6 mph 48% 0 in 758.00 W/m2 unknown
15:49 93.2 °F 68 °F 29.8 in West 6.8 mph 10.6 mph 45% 0 in 740.00 W/m2 unknown
15:54 93.2 °F 68 °F 29.8 in West 6.2 mph 9.9 mph 44% 0 in 737.00 W/m2 unknown
15:59 93.2 °F 68 °F 29.8 in WSW 5 mph 6.8 mph 44% 0 in 728.00 W/m2 unknown
16:04 93.2 °F 68 °F 29.8 in West 5.6 mph 9.3 mph 44% 0 in 719.00 W/m2 unknown
16:09 93.2 °F 68 °F 29.8 in West 5.6 mph 9.3 mph 43% 0 in 703.00 W/m2 unknown
16:14 93.2 °F 68 °F 29.8 in West 6.2 mph 8.7 mph 45% 0 in 694.00 W/m2 unknown
16:19 93.2 °F 68 °F 29.8 in West 5 mph 8.1 mph 45% 0 in 682.00 W/m2 unknown
16:24 93.2 °F 68 °F 29.8 in WSW 5.6 mph 8.1 mph 43% 0 in 673.00 W/m2 unknown
16:29 93.2 °F 68 °F 29.8 in SW 6.2 mph 8.1 mph 44% 0 in 663.00 W/m2 unknown
16:34 93.2 °F 69.8 °F 29.8 in WSW 5 mph 9.3 mph 45% 0 in 657.00 W/m2 unknown
16:39 93.2 °F 69.8 °F 29.8 in West 5 mph 9.3 mph 46% 0 in 645.00 W/m2 unknown
16:44 93.2 °F 69.8 °F 29.8 in WSW 5.6 mph 9.3 mph 45% 0 in 638.00 W/m2 unknown
16:49 93.2 °F 68 °F 29.8 in WSW 5.6 mph 8.1 mph 44% 0 in 622.00 W/m2 unknown
16:54 93.2 °F 69.8 °F 29.8 in WSW 5 mph 8.1 mph 46% 0 in 615.00 W/m2 unknown
16:59 93.2 °F 69.8 °F 29.8 in West 5 mph 8.1 mph 46% 0 in 599.00 W/m2 unknown
17:04 93.2 °F 68 °F 29.8 in WSW 5.6 mph 8.1 mph 45% 0 in 596.00 W/m2 unknown
17:08 93.2 °F 68 °F 29.8 in WSW 6.2 mph 8.1 mph 45% 0 in 580.00 W/m2 unknown
17:14 93.2 °F 68 °F 29.8 in West 7.5 mph 10.6 mph 45% 0 in 566.00 W/m2 unknown
17:19 93.2 °F 68 °F 29.8 in West 7.5 mph 10.6 mph 44% 0 in 550.00 W/m2 unknown
17:24 93.2 °F 69.8 °F 29.8 in West 6.8 mph 10.6 mph 45% 0 in 536.00 W/m2 unknown
17:29 93.2 °F 69.8 °F 29.8 in WSW 6.2 mph 8.7 mph 46% 0 in 524.00 W/m2 unknown
17:34 93.2 °F 69.8 °F 29.8 in West 6.2 mph 9.3 mph 46% 0 in 513.00 W/m2 unknown
17:39 93.2 °F 69.8 °F 29.8 in WSW 6.2 mph 9.3 mph 46% 0 in 490.00 W/m2 unknown
17:44 93.2 °F 69.8 °F 29.8 in West 5.6 mph 8.1 mph 46% 0 in 480.00 W/m2 unknown
17:49 93.2 °F 69.8 °F 29.8 in West 5.6 mph 8.1 mph 45% 0 in 466.00 W/m2 unknown
17:54 93.2 °F 68 °F 29.8 in NW 5 mph 8.1 mph 44% 0 in 452.00 W/m2 unknown
17:59 93.2 °F 68 °F 29.8 in WNW 5 mph 8.1 mph 45% 0 in 438.00 W/m2 unknown
18:04 93.2 °F 69.8 °F 29.8 in WNW 5 mph 8.1 mph 47% 0 in 424.00 W/m2 unknown
18:09 93.2 °F 69.8 °F 29.8 in WNW 5 mph 8.1 mph 47% 0 in 408.00 W/m2 unknown
18:14 93.2 °F 68 °F 29.8 in WNW 5.6 mph 10.6 mph 45% 0 in 396.00 W/m2 unknown
18:19 93.2 °F 68 °F 29.8 in WNW 5 mph 10.6 mph 45% 0 in 376.00 W/m2 unknown
18:24 93.2 °F 69.8 °F 29.8 in WNW 5.6 mph 10.6 mph 46% 0 in 362.00 W/m2 unknown
18:29 93.2 °F 69.8 °F 29.8 in West 5 mph 9.9 mph 46% 0 in 350.00 W/m2 unknown
18:34 93.2 °F 68 °F 29.8 in WNW 5 mph 6.8 mph 45% 0 in 330.00 W/m2 unknown
18:39 93.2 °F 69.8 °F 29.8 in West 5 mph 10.6 mph 46% 0 in 320.00 W/m2 unknown
18:44 93.2 °F 69.8 °F 29.8 in West 5.6 mph 10.6 mph 46% 0 in 308.00 W/m2 unknown
18:49 93.2 °F 68 °F 29.8 in West 5 mph 9.9 mph 46% 0 in 294.00 W/m2 unknown
18:54 93.2 °F 69.8 °F 29.8 in West 5 mph 6.8 mph 47% 0 in 279.00 W/m2 unknown
18:59 91.4 °F 68 °F 29.8 in West 5 mph 6.2 mph 46% 0 in 265.00 W/m2 unknown
19:04 91.4 °F 68 °F 29.8 in West 5 mph 6.2 mph 47% 0 in 250.00 W/m2 unknown
19:09 91.4 °F 69.8 °F 29.8 in West 5 mph 6.2 mph 48% 0 in 234.00 W/m2 unknown
19:11 91.4 °F 69.8 °F 29.8 in WSW 5 mph 6.2 mph 48% 0 in 220.00 W/m2 unknown
19:16 91.4 °F 69.8 °F 29.8 in West 4.3 mph 6.2 mph 49% 0 in 220.00 W/m2 unknown
19:24 91.4 °F 69.8 °F 29.8 in West 5 mph 6.2 mph 49% 0 in 197.00 W/m2 unknown
19:29 91.4 °F 68 °F 29.8 in West 5 mph 6.8 mph 48% 0 in 174.00 W/m2 unknown
19:34 91.4 °F 69.8 °F 29.8 in West 4.3 mph 6.8 mph 49% 0 in 162.00 W/m2 unknown
19:39 91.4 °F 69.8 °F 29.8 in West 3.7 mph 6.2 mph 49% 0 in 146.00 W/m2 unknown
19:44 91.4 °F 69.8 °F 29.8 in West 3.7 mph 6.2 mph 50% 0 in 132.00 W/m2 unknown
19:49 89.6 °F 69.8 °F 29.8 in WSW 4.3 mph 5 mph 52% 0 in 118.00 W/m2 unknown
19:54 89.6 °F 69.8 °F 29.8 in WSW 3.1 mph 5 mph 53% 0 in 104.00 W/m2 unknown
19:59 89.6 °F 69.8 °F 29.8 in WSW 4.3 mph 11.2 mph 55% 0 in 91.00 W/m2 unknown
20:04 89.6 °F 69.8 °F 29.8 in SW 7.5 mph 11.8 mph 54% 0 in 81.00 W/m2 unknown
20:09 87.8 °F 68 °F 29.8 in WSW 8.7 mph 11.8 mph 50% 0 in 69.00 W/m2 unknown
20:14 87.8 °F 64.4 °F 29.8 in WSW 8.7 mph 11.8 mph 47% 0 in 58.00 W/m2 unknown
20:19 87.8 °F 64.4 °F 29.8 in SW 6.8 mph 9.9 mph 47% 0 in 37.00 W/m2 unknown
20:24 87.8 °F 64.4 °F 29.8 in SW 6.2 mph 11.8 mph 46% 0 in 32.00 W/m2 unknown
20:29 87.8 °F 62.6 °F 29.8 in WSW 7.5 mph 13 mph 44% 0 in 28.00 W/m2 unknown
20:34 87.8 °F 62.6 °F 29.8 in WSW 9.3 mph 13 mph 44% 0 in 25.00 W/m2 unknown
20:39 87.8 °F 62.6 °F 29.8 in WSW 8.7 mph 13 mph 44% 0 in 21.00 W/m2 unknown
20:44 86 °F 62.6 °F 29.8 in WSW 8.1 mph 13 mph 44% 0 in 18.00 W/m2 unknown
20:49 86 °F 60.8 °F 29.8 in WSW 8.1 mph 11.8 mph 44% 0 in 14.00 W/m2 unknown
20:54 86 °F 60.8 °F 29.8 in WSW 8.7 mph 11.8 mph 44% 0 in 12.00 W/m2 unknown
20:59 86 °F 60.8 °F 29.8 in WSW 8.7 mph 11.8 mph 44% 0 in 9.00 W/m2 unknown
21:04 86 °F 60.8 °F 29.8 in SW 8.1 mph 11.8 mph 44% 0 in 7.00 W/m2 unknown
21:09 86 °F 60.8 °F 29.8 in SW 6.2 mph 9.3 mph 45% 0 in 5.00 W/m2 unknown
21:13 86 °F 60.8 °F 29.8 in SW 6.2 mph 9.9 mph 45% 0 in 0.00 W/m2 unknown
21:19 84.2 °F 60.8 °F 29.8 in SW 6.8 mph 10.6 mph 45% 0 in 0.00 W/m2 unknown
21:24 84.2 °F 60.8 °F 29.8 in SW 6.8 mph 9.9 mph 45% 0 in 0.00 W/m2 unknown
21:29 84.2 °F 60.8 °F 29.8 in SW 6.2 mph 9.3 mph 46% 0 in 0.00 W/m2 unknown
21:34 84.2 °F 60.8 °F 29.8 in SW 6.2 mph 9.9 mph 46% 0 in 0.00 W/m2 unknown
21:39 84.2 °F 60.8 °F 29.8 in SW 6.8 mph 10.6 mph 47% 0 in 0.00 W/m2 unknown
21:44 82.4 °F 60.8 °F 29.8 in SW 6.2 mph 10.6 mph 47% 0 in 0.00 W/m2 unknown
21:49 82.4 °F 60.8 °F 29.8 in SW 6.2 mph 9.9 mph 48% 0 in 0.00 W/m2 unknown
21:54 82.4 °F 60.8 °F 29.8 in SW 6.2 mph 6.8 mph 48% 0 in 0.00 W/m2 unknown
21:59 82.4 °F 60.8 °F 29.8 in SW 5 mph 6.8 mph 49% 0 in 0.00 W/m2 unknown
22:04 82.4 °F 60.8 °F 29.8 in SW 5.6 mph 8.1 mph 49% 0 in 0.00 W/m2 unknown
22:09 82.4 °F 60.8 °F 29.8 in SW 5.6 mph 8.1 mph 49% 0 in 0.00 W/m2 unknown
22:14 82.4 °F 60.8 °F 29.8 in SW 6.2 mph 8.1 mph 49% 0 in 0.00 W/m2 unknown
22:19 82.4 °F 60.8 °F 29.8 in WSW 5 mph 8.1 mph 50% 0 in 0.00 W/m2 unknown
22:24 80.6 °F 60.8 °F 29.8 in SW 5.6 mph 8.1 mph 51% 0 in 0.00 W/m2 unknown
22:29 80.6 °F 60.8 °F 29.8 in WSW 5.6 mph 6.8 mph 51% 0 in 0.00 W/m2 unknown
22:34 80.6 °F 60.8 °F 29.8 in SW 5 mph 6.8 mph 51% 0 in 0.00 W/m2 unknown
22:39 80.6 °F 60.8 °F 29.8 in SW 5 mph 6.8 mph 51% 0 in 0.00 W/m2 unknown
22:44 80.6 °F 60.8 °F 29.8 in SW 5 mph 6.8 mph 51% 0 in 0.00 W/m2 unknown
22:49 80.6 °F 60.8 °F 29.8 in WSW 5.6 mph 8.1 mph 51% 0 in 0.00 W/m2 unknown
22:53 80.6 °F 60.8 °F 29.8 in SW 5.6 mph 8.1 mph 51% 0 in 0.00 W/m2 unknown
22:59 80.6 °F 60.8 °F 29.8 in SW 6.2 mph 8.1 mph 52% 0 in 0.00 W/m2 unknown
23:04 80.6 °F 60.8 °F 29.8 in SW 5 mph 6.8 mph 52% 0 in 0.00 W/m2 unknown
23:09 78.8 °F 60.8 °F 29.8 in WSW 3.1 mph 6.8 mph 53% 0 in 0.00 W/m2 unknown
23:14 78.8 °F 60.8 °F 29.8 in WNW 2.5 mph 5 mph 54% 0 in 0.00 W/m2 unknown
23:19 78.8 °F 60.8 °F 29.8 in NW 2.5 mph 3.7 mph 56% 0 in 0.00 W/m2 unknown
23:24 78.8 °F 60.8 °F 29.8 in NW 1.9 mph 3.7 mph 56% 0 in 0.00 W/m2 unknown
23:29 78.8 °F 60.8 °F 29.8 in WNW 1.9 mph 3.1 mph 56% 0 in 0.00 W/m2 unknown
23:34 78.8 °F 60.8 °F 29.8 in NNW 1.9 mph 3.7 mph 57% 0 in 0.00 W/m2 unknown
23:39 77 °F 60.8 °F 29.8 in WNW 2.5 mph 3.7 mph 57% 0 in 0.00 W/m2 unknown
23:44 77 °F 60.8 °F 29.8 in West 2.5 mph 3.7 mph 59% 0 in 0.00 W/m2 unknown
23:49 77 °F 60.8 °F 29.8 in West 3.1 mph 3.7 mph 60% 0 in 0.00 W/m2 unknown
23:54 77 °F 60.8 °F 29.8 in WNW 3.1 mph 3.7 mph 60% 0 in 0.00 W/m2 unknown
23:59 77 °F 62.6 °F 29.8 in West 3.1 mph 5 mph 62% 0 in 0.00 W/m2 unknown
Stazione Meteorologica MeteoMincio Rivalta s/M (MN)
Con i complimenti di Weather Underground - 4 mb



METEO PILLOLE
Temperatura più bassa in pianura in Italia
S.Pietro Capofiume - Bologna
-29°C il 13 Gennaio 1985.
Share

Non seguire questo link o sarai bannato dal sito!